sensor_id;sensor_type;location;lat;lon;timestamp;pressure;altitude;pressure_sealevel;temperature;humidity
48089;BME280;33867;50.314;7.802;2023-05-16T00:01:20;100273.34;;;13.49;nan
48089;BME280;33867;50.314;7.802;2023-05-16T00:04:39;100272.84;;;13.45;nan
48089;BME280;33867;50.314;7.802;2023-05-16T00:07:58;100274.88;;;13.43;nan
48089;BME280;33867;50.314;7.802;2023-05-16T00:11:17;100270.59;;;13.32;nan
48089;BME280;33867;50.314;7.802;2023-05-16T00:14:36;100275.91;;;13.16;nan
48089;BME280;33867;50.314;7.802;2023-05-16T00:17:56;100278.56;;;13.08;nan
48089;BME280;33867;50.314;7.802;2023-05-16T00:21:17;100277.06;;;13.05;nan
48089;BME280;33867;50.314;7.802;2023-05-16T00:24:37;100284.09;;;12.98;nan
48089;BME280;33867;50.314;7.802;2023-05-16T00:27:56;100277.28;;;12.86;nan
48089;BME280;33867;50.314;7.802;2023-05-16T00:31:15;100282.69;;;12.86;nan
48089;BME280;33867;50.314;7.802;2023-05-16T00:34:34;100282.00;;;12.84;nan
48089;BME280;33867;50.314;7.802;2023-05-16T00:37:53;100285.03;;;12.81;nan
48089;BME280;33867;50.314;7.802;2023-05-16T00:41:15;100276.88;;;12.73;nan
48089;BME280;33867;50.314;7.802;2023-05-16T00:44:34;100279.22;;;12.68;nan
48089;BME280;33867;50.314;7.802;2023-05-16T00:47:53;100285.59;;;12.67;nan
48089;BME280;33867;50.314;7.802;2023-05-16T00:51:12;100284.13;;;12.72;nan
48089;BME280;33867;50.314;7.802;2023-05-16T00:54:32;100281.19;;;12.66;nan
48089;BME280;33867;50.314;7.802;2023-05-16T00:57:51;100270.44;;;12.74;nan
48089;BME280;33867;50.314;7.802;2023-05-16T01:01:11;100275.50;;;12.69;nan
48089;BME280;33867;50.314;7.802;2023-05-16T01:04:31;100275.16;;;12.72;nan
48089;BME280;33867;50.314;7.802;2023-05-16T01:07:50;100274.50;;;12.70;nan
48089;BME280;33867;50.314;7.802;2023-05-16T01:11:23;100279.81;;;12.62;nan
48089;BME280;33867;50.314;7.802;2023-05-16T01:15:07;100278.97;;;12.61;nan
48089;BME280;33867;50.314;7.802;2023-05-16T01:26:10;100276.63;;;12.66;nan
48089;BME280;33867;50.314;7.802;2023-05-16T01:29:29;100278.47;;;12.57;nan
48089;BME280;33867;50.314;7.802;2023-05-16T01:32:49;100288.94;;;12.61;nan
48089;BME280;33867;50.314;7.802;2023-05-16T01:36:25;100282.34;;;12.55;nan
48089;BME280;33867;50.314;7.802;2023-05-16T01:43:45;100270.03;;;12.61;nan
48089;BME280;33867;50.314;7.802;2023-05-16T01:47:10;100276.53;;;12.50;nan
48089;BME280;33867;50.314;7.802;2023-05-16T01:50:33;100276.38;;;12.51;nan
48089;BME280;33867;50.314;7.802;2023-05-16T01:53:57;100279.72;;;12.45;nan
48089;BME280;33867;50.314;7.802;2023-05-16T01:57:23;100276.44;;;12.34;nan
48089;BME280;33867;50.314;7.802;2023-05-16T02:00:43;100279.28;;;12.32;nan
48089;BME280;33867;50.314;7.802;2023-05-16T02:04:02;100284.97;;;12.29;nan
48089;BME280;33867;50.314;7.802;2023-05-16T02:07:21;100282.69;;;12.34;nan
48089;BME280;33867;50.314;7.802;2023-05-16T02:10:41;100279.34;;;12.40;nan
48089;BME280;33867;50.314;7.802;2023-05-16T02:14:00;100281.34;;;12.38;nan
48089;BME280;33867;50.314;7.802;2023-05-16T02:17:19;100283.34;;;12.36;nan
48089;BME280;33867;50.314;7.802;2023-05-16T02:20:39;100292.47;;;12.35;nan
48089;BME280;33867;50.314;7.802;2023-05-16T02:23:57;100289.38;;;12.30;nan
48089;BME280;33867;50.314;7.802;2023-05-16T02:27:19;100290.53;;;12.27;nan
48089;BME280;33867;50.314;7.802;2023-05-16T02:30:38;100296.75;;;12.20;nan
48089;BME280;33867;50.314;7.802;2023-05-16T02:33:58;100296.03;;;12.18;nan
48089;BME280;33867;50.314;7.802;2023-05-16T02:37:17;100293.63;;;12.15;nan
48089;BME280;33867;50.314;7.802;2023-05-16T02:40:36;100295.28;;;12.08;nan
48089;BME280;33867;50.314;7.802;2023-05-16T02:43:55;100294.97;;;12.11;nan
48089;BME280;33867;50.314;7.802;2023-05-16T02:47:14;100298.56;;;12.02;nan
48089;BME280;33867;50.314;7.802;2023-05-16T02:50:33;100305.75;;;11.93;nan
48089;BME280;33867;50.314;7.802;2023-05-16T02:53:53;100306.38;;;11.87;nan
48089;BME280;33867;50.314;7.802;2023-05-16T02:57:14;100300.41;;;11.83;nan
48089;BME280;33867;50.314;7.802;2023-05-16T03:00:33;100298.44;;;11.85;nan
48089;BME280;33867;50.314;7.802;2023-05-16T03:03:53;100310.66;;;11.80;nan
48089;BME280;33867;50.314;7.802;2023-05-16T03:07:12;100311.50;;;11.80;nan
48089;BME280;33867;50.314;7.802;2023-05-16T03:10:31;100304.09;;;11.82;nan
48089;BME280;33867;50.314;7.802;2023-05-16T03:13:50;100305.56;;;11.77;nan
48089;BME280;33867;50.314;7.802;2023-05-16T03:17:09;100307.84;;;11.71;nan
48089;BME280;33867;50.314;7.802;2023-05-16T03:20:28;100302.44;;;11.71;nan
48089;BME280;33867;50.314;7.802;2023-05-16T03:23:48;100299.91;;;11.70;nan
48089;BME280;33867;50.314;7.802;2023-05-16T03:27:08;100310.69;;;11.70;nan
48089;BME280;33867;50.314;7.802;2023-05-16T03:30:27;100301.59;;;11.71;nan
48089;BME280;33867;50.314;7.802;2023-05-16T03:33:46;100298.63;;;11.74;nan
48089;BME280;33867;50.314;7.802;2023-05-16T03:37:05;100311.00;;;11.67;nan
48089;BME280;33867;50.314;7.802;2023-05-16T03:40:25;100309.00;;;11.69;nan
48089;BME280;33867;50.314;7.802;2023-05-16T03:43:44;100308.47;;;11.65;nan
48089;BME280;33867;50.314;7.802;2023-05-16T03:47:04;100321.78;;;11.67;nan
48089;BME280;33867;50.314;7.802;2023-05-16T03:50:23;100321.09;;;11.65;nan
48089;BME280;33867;50.314;7.802;2023-05-16T03:53:43;100327.34;;;11.65;nan
48089;BME280;33867;50.314;7.802;2023-05-16T03:57:02;100328.50;;;11.63;nan
48089;BME280;33867;50.314;7.802;2023-05-16T04:00:24;100336.03;;;11.59;nan
48089;BME280;33867;50.314;7.802;2023-05-16T04:03:45;100340.19;;;11.54;nan
48089;BME280;33867;50.314;7.802;2023-05-16T04:07:04;100349.28;;;11.53;nan
48089;BME280;33867;50.314;7.802;2023-05-16T04:10:24;100345.47;;;11.46;nan
48089;BME280;33867;50.314;7.802;2023-05-16T04:13:44;100352.16;;;11.41;nan
48089;BME280;33867;50.314;7.802;2023-05-16T04:17:04;100360.84;;;11.35;nan
48089;BME280;33867;50.314;7.802;2023-05-16T04:20:23;100362.84;;;11.33;nan
48089;BME280;33867;50.314;7.802;2023-05-16T04:23:42;100358.56;;;11.40;nan
48089;BME280;33867;50.314;7.802;2023-05-16T04:27:02;100367.91;;;11.36;nan
48089;BME280;33867;50.314;7.802;2023-05-16T04:30:22;100368.91;;;11.35;nan
48089;BME280;33867;50.314;7.802;2023-05-16T04:33:42;100359.84;;;11.36;nan
48089;BME280;33867;50.314;7.802;2023-05-16T04:37:01;100370.34;;;11.39;nan
48089;BME280;33867;50.314;7.802;2023-05-16T04:40:20;100381.13;;;11.39;nan
48089;BME280;33867;50.314;7.802;2023-05-16T04:43:40;100382.13;;;11.38;nan
48089;BME280;33867;50.314;7.802;2023-05-16T04:47:00;100381.13;;;11.39;nan
48089;BME280;33867;50.314;7.802;2023-05-16T04:50:19;100385.53;;;11.40;nan
48089;BME280;33867;50.314;7.802;2023-05-16T04:53:38;100387.34;;;11.50;nan
48089;BME280;33867;50.314;7.802;2023-05-16T04:56:57;100401.38;;;11.43;nan
48089;BME280;33867;50.314;7.802;2023-05-16T05:00:17;100405.34;;;11.49;nan
48089;BME280;33867;50.314;7.802;2023-05-16T05:03:36;100402.38;;;11.42;nan
48089;BME280;33867;50.314;7.802;2023-05-16T05:06:58;100399.69;;;11.42;nan
48089;BME280;33867;50.314;7.802;2023-05-16T05:10:18;100412.47;;;11.40;nan
48089;BME280;33867;50.314;7.802;2023-05-16T05:13:37;100408.66;;;11.33;nan
48089;BME280;33867;50.314;7.802;2023-05-16T05:16:56;100409.34;;;11.35;nan
48089;BME280;33867;50.314;7.802;2023-05-16T05:20:16;100424.53;;;11.36;nan
48089;BME280;33867;50.314;7.802;2023-05-16T05:23:35;100418.16;;;11.37;nan
48089;BME280;33867;50.314;7.802;2023-05-16T05:26:54;100423.25;;;11.40;nan
48089;BME280;33867;50.314;7.802;2023-05-16T05:30:14;100428.47;;;11.52;nan
48089;BME280;33867;50.314;7.802;2023-05-16T05:33:33;100433.44;;;11.47;nan
48089;BME280;33867;50.314;7.802;2023-05-16T05:36:53;100445.91;;;11.48;nan
48089;BME280;33867;50.314;7.802;2023-05-16T05:40:13;100449.22;;;11.41;nan
48089;BME280;33867;50.314;7.802;2023-05-16T05:43:32;100453.09;;;11.20;nan
48089;BME280;33867;50.314;7.802;2023-05-16T05:46:52;100460.03;;;11.22;nan
48089;BME280;33867;50.314;7.802;2023-05-16T05:50:11;100468.03;;;11.14;nan
48089;BME280;33867;50.314;7.802;2023-05-16T05:53:30;100472.28;;;10.97;nan
48089;BME280;33867;50.314;7.802;2023-05-16T05:56:50;100479.53;;;10.97;nan
48089;BME280;33867;50.314;7.802;2023-05-16T06:00:09;100483.06;;;11.07;nan
48089;BME280;33867;50.314;7.802;2023-05-16T06:03:29;100485.47;;;11.10;nan
48089;BME280;33867;50.314;7.802;2023-05-16T06:06:48;100497.94;;;11.11;nan
48089;BME280;33867;50.314;7.802;2023-05-16T06:10:08;100510.69;;;11.09;nan
48089;BME280;33867;50.314;7.802;2023-05-16T06:13:27;100516.50;;;10.75;nan
48089;BME280;33867;50.314;7.802;2023-05-16T06:16:46;100517.66;;;10.82;nan
48089;BME280;33867;50.314;7.802;2023-05-16T06:20:06;100528.84;;;10.88;nan
48089;BME280;33867;50.314;7.802;2023-05-16T06:23:26;100528.31;;;10.94;nan
48089;BME280;33867;50.314;7.802;2023-05-16T06:26:45;100533.69;;;11.03;nan
48089;BME280;33867;50.314;7.802;2023-05-16T06:30:08;100544.03;;;11.08;nan
48089;BME280;33867;50.314;7.802;2023-05-16T06:33:27;100548.28;;;11.10;nan
48089;BME280;33867;50.314;7.802;2023-05-16T06:36:47;100544.63;;;10.92;nan
48089;BME280;33867;50.314;7.802;2023-05-16T06:40:06;100556.91;;;10.75;nan
48089;BME280;33867;50.314;7.802;2023-05-16T06:43:26;100558.78;;;11.04;nan
48089;BME280;33867;50.314;7.802;2023-05-16T06:46:45;100565.16;;;11.22;nan
48089;BME280;33867;50.314;7.802;2023-05-16T06:50:06;100563.59;;;11.49;nan
48089;BME280;33867;50.314;7.802;2023-05-16T06:53:25;100562.03;;;10.78;nan
48089;BME280;33867;50.314;7.802;2023-05-16T06:56:45;100570.41;;;10.95;nan
48089;BME280;33867;50.314;7.802;2023-05-16T07:00:06;100573.09;;;11.24;nan
48089;BME280;33867;50.314;7.802;2023-05-16T07:03:27;100572.38;;;11.51;nan
48089;BME280;33867;50.314;7.802;2023-05-16T07:06:47;100584.59;;;11.45;nan
48089;BME280;33867;50.314;7.802;2023-05-16T07:10:07;100580.63;;;11.39;nan
48089;BME280;33867;50.314;7.802;2023-05-16T07:13:26;100594.94;;;11.50;nan
48089;BME280;33867;50.314;7.802;2023-05-16T07:16:45;100588.41;;;11.52;nan
48089;BME280;33867;50.314;7.802;2023-05-16T07:20:05;100595.81;;;11.40;nan
48089;BME280;33867;50.314;7.802;2023-05-16T07:23:24;100596.09;;;11.37;nan
48089;BME280;33867;50.314;7.802;2023-05-16T07:26:43;100609.97;;;10.84;nan
48089;BME280;33867;50.314;7.802;2023-05-16T07:30:03;100609.81;;;10.86;nan
48089;BME280;33867;50.314;7.802;2023-05-16T07:33:22;100613.94;;;10.90;nan
48089;BME280;33867;50.314;7.802;2023-05-16T07:36:41;100618.25;;;10.62;nan
48089;BME280;33867;50.314;7.802;2023-05-16T07:40:00;100627.44;;;10.50;nan
48089;BME280;33867;50.314;7.802;2023-05-16T07:43:19;100621.75;;;10.43;nan
48089;BME280;33867;50.314;7.802;2023-05-16T07:46:38;100626.81;;;10.37;nan
48089;BME280;33867;50.314;7.802;2023-05-16T07:49:56;100630.31;;;10.58;nan
48089;BME280;33867;50.314;7.802;2023-05-16T07:53:16;100635.03;;;10.75;nan
48089;BME280;33867;50.314;7.802;2023-05-16T07:56:35;100627.00;;;10.95;nan
48089;BME280;33867;50.314;7.802;2023-05-16T07:59:54;100634.94;;;11.06;nan
48089;BME280;33867;50.314;7.802;2023-05-16T08:03:13;100639.41;;;10.76;nan
48089;BME280;33867;50.314;7.802;2023-05-16T08:06:32;100637.94;;;11.03;nan
48089;BME280;33867;50.314;7.802;2023-05-16T08:09:52;100636.66;;;11.36;nan
48089;BME280;33867;50.314;7.802;2023-05-16T08:13:11;100643.75;;;11.66;nan
48089;BME280;33867;50.314;7.802;2023-05-16T08:16:30;100639.25;;;12.23;nan
48089;BME280;33867;50.314;7.802;2023-05-16T08:19:49;100643.81;;;12.22;nan
48089;BME280;33867;50.314;7.802;2023-05-16T08:23:08;100640.59;;;12.74;nan
48089;BME280;33867;50.314;7.802;2023-05-16T08:26:28;100644.00;;;12.48;nan
48089;BME280;33867;50.314;7.802;2023-05-16T08:29:46;100640.34;;;12.67;nan
48089;BME280;33867;50.314;7.802;2023-05-16T08:33:06;100649.78;;;12.53;nan
48089;BME280;33867;50.314;7.802;2023-05-16T08:36:25;100656.88;;;12.54;nan
48089;BME280;33867;50.314;7.802;2023-05-16T08:39:44;100659.19;;;12.03;nan
48089;BME280;33867;50.314;7.802;2023-05-16T08:43:04;100656.53;;;12.40;nan
48089;BME280;33867;50.314;7.802;2023-05-16T08:46:24;100662.81;;;12.68;nan
48089;BME280;33867;50.314;7.802;2023-05-16T08:49:46;100653.75;;;12.86;nan
48089;BME280;33867;50.314;7.802;2023-05-16T08:53:07;100650.53;;;13.01;nan
48089;BME280;33867;50.314;7.802;2023-05-16T08:56:27;100655.53;;;13.23;nan
48089;BME280;33867;50.314;7.802;2023-05-16T08:59:46;100657.94;;;13.44;nan
48089;BME280;33867;50.314;7.802;2023-05-16T09:03:05;100656.22;;;13.79;nan
48089;BME280;33867;50.314;7.802;2023-05-16T09:06:24;100653.63;;;13.95;nan
48089;BME280;33867;50.314;7.802;2023-05-16T09:09:44;100658.63;;;14.59;nan
48089;BME280;33867;50.314;7.802;2023-05-16T09:13:03;100652.44;;;16.15;nan
48089;BME280;33867;50.314;7.802;2023-05-16T09:16:22;100652.06;;;17.44;nan
48089;BME280;33867;50.314;7.802;2023-05-16T09:19:44;100657.59;;;18.34;nan
48089;BME280;33867;50.314;7.802;2023-05-16T09:23:04;100645.31;;;16.14;nan
48089;BME280;33867;50.314;7.802;2023-05-16T09:26:23;100654.69;;;15.87;nan
48089;BME280;33867;50.314;7.802;2023-05-16T09:29:49;100648.38;;;16.03;nan
48089;BME280;33867;50.314;7.802;2023-05-16T09:33:09;100653.59;;;16.21;nan
48089;BME280;33867;50.314;7.802;2023-05-16T09:36:30;100647.97;;;17.71;nan
48089;BME280;33867;50.314;7.802;2023-05-16T09:39:51;100641.34;;;18.85;nan
48089;BME280;33867;50.314;7.802;2023-05-16T09:43:14;100629.78;;;18.24;nan
48089;BME280;33867;50.314;7.802;2023-05-16T09:46:36;100638.03;;;18.89;nan
48089;BME280;33867;50.314;7.802;2023-05-16T09:49:55;100641.91;;;19.52;nan
48089;BME280;33867;50.314;7.802;2023-05-16T09:53:14;100634.22;;;17.87;nan
48089;BME280;33867;50.314;7.802;2023-05-16T09:56:47;100644.84;;;17.05;nan
48089;BME280;33867;50.314;7.802;2023-05-16T10:00:09;100641.72;;;17.39;nan
48089;BME280;33867;50.314;7.802;2023-05-16T10:03:29;100630.44;;;18.55;nan
48089;BME280;33867;50.314;7.802;2023-05-16T10:06:50;100625.50;;;19.52;nan
48089;BME280;33867;50.314;7.802;2023-05-16T10:10:11;100624.22;;;19.91;nan
48089;BME280;33867;50.314;7.802;2023-05-16T10:13:33;100635.44;;;20.31;nan
48089;BME280;33867;50.314;7.802;2023-05-16T10:16:53;100624.88;;;18.19;nan
48089;BME280;33867;50.314;7.802;2023-05-16T10:20:12;100624.00;;;18.92;nan
48089;BME280;33867;50.314;7.802;2023-05-16T10:23:32;100622.72;;;18.88;nan
48089;BME280;33867;50.314;7.802;2023-05-16T10:26:52;100628.94;;;18.23;nan
48089;BME280;33867;50.314;7.802;2023-05-16T10:30:11;100637.50;;;16.75;nan
48089;BME280;33867;50.314;7.802;2023-05-16T10:33:30;100625.53;;;19.31;nan
48089;BME280;33867;50.314;7.802;2023-05-16T10:36:51;100600.97;;;20.71;nan
48089;BME280;33867;50.314;7.802;2023-05-16T10:40:11;100611.88;;;21.12;nan
48089;BME280;33867;50.314;7.802;2023-05-16T10:43:30;100612.56;;;20.10;nan
48089;BME280;33867;50.314;7.802;2023-05-16T10:46:51;100594.94;;;20.95;nan
48089;BME280;33867;50.314;7.802;2023-05-16T10:50:10;100595.13;;;21.62;nan
48089;BME280;33867;50.314;7.802;2023-05-16T10:53:34;100590.16;;;21.17;nan
48089;BME280;33867;50.314;7.802;2023-05-16T10:56:54;100593.47;;;21.67;nan
48089;BME280;33867;50.314;7.802;2023-05-16T11:00:21;100586.28;;;21.46;nan
48089;BME280;33867;50.314;7.802;2023-05-16T11:07:17;100613.88;;;20.14;nan
48089;BME280;33867;50.314;7.802;2023-05-16T11:10:37;100595.88;;;21.22;nan
48089;BME280;33867;50.314;7.802;2023-05-16T11:13:56;100609.06;;;21.67;nan
48089;BME280;33867;50.314;7.802;2023-05-16T11:17:22;100595.09;;;22.99;nan
48089;BME280;33867;50.314;7.802;2023-05-16T11:20:42;100595.53;;;21.52;nan
48089;BME280;33867;50.314;7.802;2023-05-16T11:24:27;100603.75;;;21.45;nan
48089;BME280;33867;50.314;7.802;2023-05-16T11:27:47;100602.31;;;21.82;nan
48089;BME280;33867;50.314;7.802;2023-05-16T11:31:07;100612.50;;;21.14;nan
48089;BME280;33867;50.314;7.802;2023-05-16T11:34:26;100610.84;;;20.03;nan
48089;BME280;33867;50.314;7.802;2023-05-16T11:37:46;100598.84;;;21.21;nan
48089;BME280;33867;50.314;7.802;2023-05-16T11:41:07;100599.41;;;22.75;nan
48089;BME280;33867;50.314;7.802;2023-05-16T11:44:26;100589.53;;;18.85;nan
48089;BME280;33867;50.314;7.802;2023-05-16T11:47:47;100590.63;;;19.97;nan
48089;BME280;33867;50.314;7.802;2023-05-16T11:51:06;100598.81;;;21.14;nan
48089;BME280;33867;50.314;7.802;2023-05-16T11:54:26;100593.34;;;21.08;nan
48089;BME280;33867;50.314;7.802;2023-05-16T11:57:46;100597.03;;;21.74;nan
48089;BME280;33867;50.314;7.802;2023-05-16T12:01:06;100601.09;;;21.04;nan
48089;BME280;33867;50.314;7.802;2023-05-16T12:04:26;100597.66;;;21.50;nan
48089;BME280;33867;50.314;7.802;2023-05-16T12:07:46;100604.72;;;21.11;nan
48089;BME280;33867;50.314;7.802;2023-05-16T12:11:05;100606.75;;;19.64;nan
48089;BME280;33867;50.314;7.802;2023-05-16T12:14:25;100613.44;;;17.86;nan
48089;BME280;33867;50.314;7.802;2023-05-16T12:17:45;100616.94;;;19.34;nan
48089;BME280;33867;50.314;7.802;2023-05-16T12:21:05;100611.16;;;20.14;nan
48089;BME280;33867;50.314;7.802;2023-05-16T12:24:30;100622.63;;;20.66;nan
48089;BME280;33867;50.314;7.802;2023-05-16T12:27:51;100617.34;;;19.31;nan
48089;BME280;33867;50.314;7.802;2023-05-16T12:31:17;100605.81;;;20.69;nan
48089;BME280;33867;50.314;7.802;2023-05-16T12:34:37;100612.47;;;20.53;nan
48089;BME280;33867;50.314;7.802;2023-05-16T12:37:56;100621.16;;;20.35;nan
48089;BME280;33867;50.314;7.802;2023-05-16T12:41:20;100620.66;;;22.15;nan
48089;BME280;33867;50.314;7.802;2023-05-16T12:44:43;100620.28;;;18.20;nan
48089;BME280;33867;50.314;7.802;2023-05-16T12:48:04;100630.78;;;21.07;nan
48089;BME280;33867;50.314;7.802;2023-05-16T12:51:28;100634.06;;;20.83;nan
48089;BME280;33867;50.314;7.802;2023-05-16T12:54:47;100624.63;;;20.44;nan
48089;BME280;33867;50.314;7.802;2023-05-16T12:58:07;100646.75;;;18.11;nan
48089;BME280;33867;50.314;7.802;2023-05-16T13:01:26;100636.75;;;19.21;nan
48089;BME280;33867;50.314;7.802;2023-05-16T13:04:46;100629.75;;;18.97;nan
48089;BME280;33867;50.314;7.802;2023-05-16T13:08:05;100623.19;;;18.18;nan
48089;BME280;33867;50.314;7.802;2023-05-16T13:11:25;100637.41;;;18.87;nan
48089;BME280;33867;50.314;7.802;2023-05-16T13:14:44;100639.94;;;18.89;nan
48089;BME280;33867;50.314;7.802;2023-05-16T13:18:03;100640.03;;;20.58;nan
48089;BME280;33867;50.314;7.802;2023-05-16T13:21:22;100636.41;;;21.34;nan
48089;BME280;33867;50.314;7.802;2023-05-16T13:24:41;100637.50;;;19.73;nan
48089;BME280;33867;50.314;7.802;2023-05-16T13:28:00;100645.78;;;18.86;nan
48089;BME280;33867;50.314;7.802;2023-05-16T13:31:22;100650.25;;;18.34;nan
48089;BME280;33867;50.314;7.802;2023-05-16T13:34:41;100651.19;;;19.01;nan
48089;BME280;33867;50.314;7.802;2023-05-16T13:38:00;100648.13;;;18.74;nan
48089;BME280;33867;50.314;7.802;2023-05-16T13:41:19;100662.06;;;18.64;nan
48089;BME280;33867;50.314;7.802;2023-05-16T13:44:38;100660.78;;;19.11;nan
48089;BME280;33867;50.314;7.802;2023-05-16T13:47:58;100662.91;;;19.67;nan
48089;BME280;33867;50.314;7.802;2023-05-16T13:51:17;100660.81;;;18.52;nan
48089;BME280;33867;50.314;7.802;2023-05-16T13:54:35;100663.25;;;18.62;nan
48089;BME280;33867;50.314;7.802;2023-05-16T13:57:55;100669.06;;;18.44;nan
48089;BME280;33867;50.314;7.802;2023-05-16T14:01:14;100672.84;;;17.91;nan
48089;BME280;33867;50.314;7.802;2023-05-16T14:04:33;100671.06;;;17.29;nan
48089;BME280;33867;50.314;7.802;2023-05-16T14:07:52;100672.28;;;18.48;nan
48089;BME280;33867;50.314;7.802;2023-05-16T14:11:11;100669.66;;;18.98;nan
48089;BME280;33867;50.314;7.802;2023-05-16T14:15:07;100663.75;;;17.75;nan
48089;BME280;33867;50.314;7.802;2023-05-16T14:18:38;100663.84;;;17.36;nan
48089;BME280;33867;50.314;7.802;2023-05-16T14:22:07;100665.03;;;18.55;nan
48089;BME280;33867;50.314;7.802;2023-05-16T14:25:26;100660.13;;;19.09;nan
48089;BME280;33867;50.314;7.802;2023-05-16T14:28:45;100659.63;;;17.34;nan
48089;BME280;33867;50.314;7.802;2023-05-16T14:32:04;100653.88;;;16.98;nan
48089;BME280;33867;50.314;7.802;2023-05-16T14:35:23;100658.09;;;16.61;nan
48089;BME280;33867;50.314;7.802;2023-05-16T14:38:43;100653.72;;;16.99;nan
48089;BME280;33867;50.314;7.802;2023-05-16T14:42:02;100653.91;;;17.74;nan
48089;BME280;33867;50.314;7.802;2023-05-16T14:45:21;100657.44;;;18.35;nan
48089;BME280;33867;50.314;7.802;2023-05-16T14:48:40;100645.75;;;18.56;nan
48089;BME280;33867;50.314;7.802;2023-05-16T14:51:59;100643.41;;;18.53;nan
48089;BME280;33867;50.314;7.802;2023-05-16T14:55:19;100645.84;;;17.81;nan
48089;BME280;33867;50.314;7.802;2023-05-16T14:58:39;100655.09;;;17.49;nan
48089;BME280;33867;50.314;7.802;2023-05-16T15:02:01;100645.44;;;17.69;nan
48089;BME280;33867;50.314;7.802;2023-05-16T15:05:21;100645.63;;;19.09;nan
48089;BME280;33867;50.314;7.802;2023-05-16T15:08:44;100650.75;;;19.97;nan
48089;BME280;33867;50.314;7.802;2023-05-16T15:12:04;100638.78;;;19.34;nan
48089;BME280;33867;50.314;7.802;2023-05-16T15:15:23;100652.66;;;18.67;nan
48089;BME280;33867;50.314;7.802;2023-05-16T15:18:43;100669.34;;;16.97;nan
48089;BME280;33867;50.314;7.802;2023-05-16T15:22:02;100666.94;;;17.02;nan
48089;BME280;33867;50.314;7.802;2023-05-16T15:25:25;100669.81;;;17.09;nan
48089;BME280;33867;50.314;7.802;2023-05-16T15:28:44;100668.81;;;16.71;nan
48089;BME280;33867;50.314;7.802;2023-05-16T15:32:04;100659.88;;;17.47;nan
48089;BME280;33867;50.314;7.802;2023-05-16T15:35:23;100654.69;;;17.06;nan
48089;BME280;33867;50.314;7.802;2023-05-16T15:38:43;100656.59;;;16.58;nan
48089;BME280;33867;50.314;7.802;2023-05-16T15:42:04;100669.78;;;16.78;nan
48089;BME280;33867;50.314;7.802;2023-05-16T15:45:24;100665.94;;;17.57;nan
48089;BME280;33867;50.314;7.802;2023-05-16T15:48:43;100670.41;;;17.50;nan
48089;BME280;33867;50.314;7.802;2023-05-16T15:52:03;100679.72;;;17.56;nan
48089;BME280;33867;50.314;7.802;2023-05-16T15:55:22;100684.16;;;17.25;nan
48089;BME280;33867;50.314;7.802;2023-05-16T15:58:41;100689.69;;;17.09;nan
48089;BME280;33867;50.314;7.802;2023-05-16T16:02:04;100696.84;;;17.10;nan
48089;BME280;33867;50.314;7.802;2023-05-16T16:05:23;100694.72;;;16.89;nan
48089;BME280;33867;50.314;7.802;2023-05-16T16:08:42;100702.28;;;16.55;nan
48089;BME280;33867;50.314;7.802;2023-05-16T16:12:01;100711.69;;;16.20;nan
48089;BME280;33867;50.314;7.802;2023-05-16T16:15:20;100708.47;;;15.67;nan
48089;BME280;33867;50.314;7.802;2023-05-16T16:18:40;100706.88;;;15.57;nan
48089;BME280;33867;50.314;7.802;2023-05-16T16:22:02;100704.09;;;15.16;nan
48089;BME280;33867;50.314;7.802;2023-05-16T16:25:21;100708.84;;;15.22;nan
48089;BME280;33867;50.314;7.802;2023-05-16T16:28:40;100716.63;;;14.75;nan
48089;BME280;33867;50.314;7.802;2023-05-16T16:31:59;100707.34;;;14.85;nan
48089;BME280;33867;50.314;7.802;2023-05-16T16:35:18;100709.25;;;14.59;nan
48089;BME280;33867;50.314;7.802;2023-05-16T16:38:38;100711.59;;;14.88;nan
48089;BME280;33867;50.314;7.802;2023-05-16T16:41:57;100706.38;;;14.95;nan
48089;BME280;33867;50.314;7.802;2023-05-16T16:45:16;100703.50;;;14.96;nan
48089;BME280;33867;50.314;7.802;2023-05-16T16:48:35;100701.53;;;14.72;nan
48089;BME280;33867;50.314;7.802;2023-05-16T16:51:54;100705.16;;;14.55;nan
48089;BME280;33867;50.314;7.802;2023-05-16T16:55:14;100706.06;;;14.63;nan
48089;BME280;33867;50.314;7.802;2023-05-16T16:58:33;100702.56;;;14.71;nan
48089;BME280;33867;50.314;7.802;2023-05-16T17:01:52;100705.31;;;14.87;nan
48089;BME280;33867;50.314;7.802;2023-05-16T17:05:11;100710.09;;;14.94;nan
48089;BME280;33867;50.314;7.802;2023-05-16T17:08:30;100712.91;;;15.18;nan
48089;BME280;33867;50.314;7.802;2023-05-16T17:11:49;100709.53;;;15.16;nan
48089;BME280;33867;50.314;7.802;2023-05-16T17:15:09;100713.06;;;15.16;nan
48089;BME280;33867;50.314;7.802;2023-05-16T17:18:29;100716.56;;;14.93;nan
48089;BME280;33867;50.314;7.802;2023-05-16T17:21:48;100720.28;;;15.00;nan
48089;BME280;33867;50.314;7.802;2023-05-16T17:25:08;100713.41;;;14.79;nan
48089;BME280;33867;50.314;7.802;2023-05-16T17:28:28;100717.34;;;14.85;nan
48089;BME280;33867;50.314;7.802;2023-05-16T17:31:49;100710.38;;;14.48;nan
48089;BME280;33867;50.314;7.802;2023-05-16T17:35:08;100717.03;;;14.10;nan
48089;BME280;33867;50.314;7.802;2023-05-16T17:38:27;100730.06;;;13.89;nan
48089;BME280;33867;50.314;7.802;2023-05-16T17:41:46;100723.88;;;13.79;nan
48089;BME280;33867;50.314;7.802;2023-05-16T17:45:06;100729.19;;;13.70;nan
48089;BME280;33867;50.314;7.802;2023-05-16T17:48:28;100728.56;;;13.59;nan
48089;BME280;33867;50.314;7.802;2023-05-16T17:51:49;100733.59;;;13.54;nan
48089;BME280;33867;50.314;7.802;2023-05-16T17:55:08;100733.44;;;13.55;nan
48089;BME280;33867;50.314;7.802;2023-05-16T17:58:27;100741.09;;;13.42;nan
48089;BME280;33867;50.314;7.802;2023-05-16T18:01:47;100738.81;;;13.37;nan
48089;BME280;33867;50.314;7.802;2023-05-16T18:05:07;100750.31;;;13.22;nan
48089;BME280;33867;50.314;7.802;2023-05-16T18:08:27;100749.34;;;13.13;nan